Cade, Louisiana
Current Conditions -  °F | °C
As of 8:53 AM on Thursday 30 Oct 2014 (Local Time) from KARA Reporting Station
Clear Clear  
Wind Chill: 60°   Ceiling: Unl
Heat Index: 60°   Visibility: 10mi
Dew Point: 48°   Wind: 8mph
Humidity: 64%   Direction: 50°NE
Pressure: 30.14"   Gusts: NA
Location:  30.09°N, 91.91°W
Report Text: KARA 301353Z 05007KT 10SM CLR 16/09 A3014 RMK AO2 SLP205 T01560089
Loading
Personal Weather Stations






























Interactive Weather Map
Tropical Storm Tracking
New forecast layout! Learn more

10-Day Weather Forecast

Advertisements
Track Severe Weather on mobile